createdAt,value
2023-01-09T00:03:29.551Z,2.65
2023-01-09T00:07:31.322Z,5.37
2023-01-09T00:11:33.241Z,1.95
2023-01-09T00:15:34.872Z,2.47
2023-01-09T00:19:36.490Z,0.93
2023-01-09T00:23:38.880Z,1.37
2023-01-09T00:27:40.564Z,0.95
2023-01-09T00:31:42.216Z,1.15
2023-01-09T00:35:43.809Z,1.27
2023-01-09T00:39:45.448Z,1.55
2023-01-09T00:43:51.466Z,1.45
2023-01-09T00:47:53.095Z,0.85
2023-01-09T00:51:55.647Z,1.33
2023-01-09T00:56:04.798Z,1.58
2023-01-09T01:00:08.403Z,0.60
2023-01-09T01:04:29.049Z,2.17
2023-01-09T01:08:30.713Z,1.12
2023-01-09T01:12:32.467Z,1.02
2023-01-09T01:16:34.161Z,0.30
2023-01-09T01:20:36.119Z,0.10
2023-01-09T01:24:37.763Z,2.67
2023-01-09T01:28:40.324Z,0.10
2023-01-09T01:32:42.503Z,0.00
2023-01-09T01:36:44.170Z,0.35
2023-01-09T01:40:53.308Z,0.40
2023-01-09T01:45:05.942Z,0.40
2023-01-09T01:49:12.878Z,0.22
2023-01-09T01:53:29.691Z,0.20
2023-01-09T01:57:32.641Z,0.62
2023-01-09T02:01:36.248Z,1.27
2023-01-09T02:05:39.424Z,0.30
2023-01-09T02:09:41.941Z,0.43
2023-01-09T02:13:44.006Z,3.08
2023-01-09T02:17:58.294Z,0.50
2023-01-09T02:22:30.804Z,1.10
2023-01-09T02:26:41.283Z,1.27
2023-01-09T02:30:56.916Z,0.88
2023-01-09T02:35:31.737Z,2.67
2023-01-09T02:39:46.979Z,2.80
2023-01-09T02:44:00.290Z,2.85
2023-01-09T02:48:01.962Z,1.42
2023-01-09T02:52:09.441Z,1.20
2023-01-09T02:56:31.382Z,1.80
2023-01-09T03:01:04.760Z,2.37
2023-01-09T03:05:28.598Z,1.60
2023-01-09T03:09:34.143Z,2.53
2023-01-09T03:13:45.752Z,2.92
2023-01-09T03:17:49.331Z,1.75
2023-01-09T03:21:51.906Z,3.15
2023-01-09T03:25:53.567Z,3.62
2023-01-09T03:29:56.499Z,4.95
2023-01-09T03:33:58.165Z,5.78
2023-01-09T03:37:59.893Z,3.60
2023-01-09T03:42:01.541Z,3.90
2023-01-09T03:46:04.421Z,5.65
2023-01-09T03:50:06.935Z,3.87
2023-01-09T03:54:08.677Z,3.00
2023-01-09T03:58:10.304Z,4.93
2023-01-09T04:02:12.162Z,3.60
2023-01-09T04:06:13.892Z,7.30
2023-01-09T04:10:15.882Z,2.42
2023-01-09T04:14:17.551Z,4.35
2023-01-09T04:18:19.178Z,5.68
2023-01-09T04:22:20.882Z,5.47
2023-01-09T04:26:22.532Z,5.72
2023-01-09T04:30:24.424Z,4.53
2023-01-09T04:34:26.542Z,6.20
2023-01-09T04:38:28.188Z,4.60
2023-01-09T04:42:29.848Z,4.97
2023-01-09T04:46:31.488Z,2.80
2023-01-09T04:50:33.130Z,4.22
2023-01-09T04:54:34.814Z,7.78
2023-01-09T04:58:36.456Z,3.05
2023-01-09T05:02:38.312Z,8.35
2023-01-09T05:06:40.090Z,5.65
2023-01-09T05:10:41.760Z,6.10
2023-01-09T05:14:43.452Z,5.28
2023-01-09T05:18:45.138Z,6.70
2023-01-09T05:22:46.780Z,6.80
2023-01-09T05:26:48.506Z,4.07
2023-01-09T05:30:50.220Z,11.35
2023-01-09T05:34:51.865Z,6.10
2023-01-09T05:38:53.623Z,4.90
2023-01-09T05:42:55.313Z,3.28
2023-01-09T05:46:56.976Z,3.92
2023-01-09T05:50:58.616Z,4.10
2023-01-09T05:55:00.288Z,6.95
2023-01-09T05:59:02.016Z,3.53
2023-01-09T06:03:03.741Z,14.05
2023-01-09T06:07:05.525Z,5.35
2023-01-09T06:11:07.209Z,3.80
2023-01-09T06:15:09.255Z,5.53
2023-01-09T06:19:10.952Z,5.53
2023-01-09T06:23:13.596Z,3.30
2023-01-09T06:27:15.569Z,8.57
2023-01-09T06:31:17.606Z,6.22
2023-01-09T06:35:20.619Z,5.18
2023-01-09T06:39:22.398Z,6.25
2023-01-09T06:43:24.127Z,6.60
2023-01-09T06:47:25.795Z,9.38
2023-01-09T06:51:27.511Z,6.85
2023-01-09T06:55:29.334Z,4.68
2023-01-09T06:59:30.977Z,4.25
2023-01-09T07:03:33.852Z,4.03
2023-01-09T07:07:35.556Z,4.35
2023-01-09T07:11:37.162Z,5.18
2023-01-09T07:15:39.110Z,11.15
2023-01-09T07:19:41.300Z,2.65
2023-01-09T07:23:42.949Z,3.87
2023-01-09T07:27:44.664Z,5.43
2023-01-09T07:31:46.873Z,6.03
2023-01-09T07:35:48.509Z,3.30
2023-01-09T07:39:50.295Z,5.03
2023-01-09T07:43:51.935Z,4.60
2023-01-09T07:47:53.650Z,4.15
2023-01-09T07:51:55.756Z,7.47
2023-01-09T07:55:57.559Z,6.50
2023-01-09T08:00:00.939Z,3.78
2023-01-09T08:04:02.571Z,6.05
2023-01-09T08:08:04.359Z,5.43
2023-01-09T08:12:06.082Z,6.75
2023-01-09T08:16:07.984Z,8.40
2023-01-09T08:20:12.035Z,4.57
2023-01-09T08:24:13.736Z,6.10
2023-01-09T08:28:15.495Z,7.18
2023-01-09T08:32:17.149Z,6.30
2023-01-09T08:36:18.919Z,5.72
2023-01-09T08:40:20.620Z,5.37
2023-01-09T08:44:40.954Z,6.35
2023-01-09T08:48:43.520Z,5.43
2023-01-09T08:52:45.206Z,6.60
2023-01-09T08:56:47.083Z,8.20
2023-01-09T09:00:48.755Z,8.75
2023-01-09T09:04:52.930Z,3.80
2023-01-09T09:08:54.615Z,5.50
2023-01-09T09:12:57.795Z,6.62
2023-01-09T09:16:59.474Z,7.95
2023-01-09T09:21:01.175Z,5.93
2023-01-09T09:25:04.643Z,2.83
2023-01-09T09:29:06.354Z,8.40
2023-01-09T09:33:08.447Z,9.13
2023-01-09T09:37:10.095Z,4.05
2023-01-09T09:41:49.528Z,4.95
2023-01-09T09:46:00.899Z,6.82
2023-01-09T09:50:27.903Z,4.70
2023-01-09T09:54:38.860Z,5.30
2023-01-09T09:58:43.514Z,2.65
2023-01-09T10:02:51.689Z,4.78
2023-01-09T10:06:59.319Z,4.87
2023-01-09T10:11:02.007Z,5.10
2023-01-09T10:15:18.501Z,4.75
2023-01-09T10:19:26.736Z,7.12
2023-01-09T10:23:28.340Z,2.05
2023-01-09T10:27:48.106Z,4.20
2023-01-09T10:32:12.601Z,2.90
2023-01-09T10:36:39.751Z,7.37
2023-01-09T10:40:50.954Z,4.87
2023-01-09T10:45:37.126Z,6.10
2023-01-09T10:49:39.550Z,3.58
2023-01-09T10:53:47.361Z,4.65
2023-01-09T10:58:01.234Z,5.53
2023-01-09T11:02:03.626Z,4.60
2023-01-09T11:06:22.488Z,4.95
2023-01-09T11:10:43.549Z,4.15
2023-01-09T11:14:45.240Z,3.20
2023-01-09T11:18:57.558Z,4.62
2023-01-09T11:22:59.470Z,5.93
2023-01-09T11:27:23.144Z,5.82
2023-01-09T11:31:25.832Z,4.45
2023-01-09T11:35:28.798Z,5.70
2023-01-09T11:39:33.476Z,6.20
2023-01-09T11:43:39.902Z,4.45
2023-01-09T11:47:41.797Z,5.03
2023-01-09T11:51:44.243Z,5.37
2023-01-09T11:55:56.073Z,3.67
2023-01-09T12:00:02.658Z,4.37
2023-01-09T12:04:23.467Z,3.10
2023-01-09T12:08:53.728Z,1.95
2023-01-09T12:13:23.026Z,6.70
2023-01-09T12:17:53.529Z,3.53
2023-01-09T12:22:40.778Z,3.75
2023-01-09T12:27:04.071Z,3.03
2023-01-09T12:31:08.747Z,2.95
2023-01-09T12:35:37.918Z,3.17
2023-01-09T12:39:47.595Z,2.58
2023-01-09T12:44:03.724Z,2.20
2023-01-09T12:48:24.956Z,3.17
2023-01-09T12:52:38.401Z,2.28
2023-01-09T12:56:45.383Z,3.25
2023-01-09T13:00:50.359Z,3.75
2023-01-09T13:05:02.735Z,2.45
2023-01-09T13:09:19.523Z,5.70
2023-01-09T13:13:31.060Z,2.47
2023-01-09T13:17:49.760Z,3.70
2023-01-09T13:21:52.831Z,3.97
2023-01-09T13:25:57.674Z,4.18
2023-01-09T13:30:25.428Z,3.28
2023-01-09T13:34:30.544Z,2.80
2023-01-09T13:38:34.699Z,4.10
2023-01-09T13:42:36.600Z,3.72
2023-01-09T13:46:44.929Z,4.57
2023-01-09T13:50:48.161Z,5.40
2023-01-09T13:55:16.061Z,4.85
2023-01-09T14:03:36.120Z,4.72
2023-01-09T14:07:43.014Z,9.35
2023-01-09T14:11:46.320Z,6.70
2023-01-09T14:15:49.730Z,3.78
2023-01-09T14:20:00.087Z,5.53
2023-01-09T14:24:07.576Z,6.82
2023-01-09T14:28:27.541Z,2.47
2023-01-09T14:32:34.245Z,8.45
2023-01-09T14:36:37.263Z,4.87
2023-01-09T14:40:44.535Z,6.70
2023-01-09T14:45:01.251Z,4.60
2023-01-09T14:49:31.488Z,6.57
2023-01-09T14:53:36.942Z,4.85
2023-01-09T14:57:38.895Z,4.60
2023-01-09T15:01:45.989Z,3.65
2023-01-09T15:10:02.517Z,5.37
2023-01-09T15:14:05.418Z,4.18
2023-01-09T15:18:10.591Z,4.95
2023-01-09T15:22:48.105Z,6.18
2023-01-09T15:26:58.607Z,8.00
2023-01-09T15:31:05.590Z,4.45
2023-01-09T15:35:14.081Z,4.05
2023-01-09T15:39:24.397Z,3.17
2023-01-09T15:43:29.688Z,8.13
2023-01-09T15:47:34.216Z,8.63
2023-01-09T15:51:36.236Z,5.03
2023-01-09T15:55:38.427Z,7.57
2023-01-09T15:59:41.055Z,6.30
2023-01-09T16:03:43.269Z,9.40
2023-01-09T16:07:49.984Z,9.48
2023-01-09T16:11:56.247Z,5.40
2023-01-09T16:16:00.133Z,5.93
2023-01-09T16:20:25.429Z,4.82
2023-01-09T16:24:34.430Z,9.88
2023-01-09T16:28:36.252Z,7.50
2023-01-09T16:32:51.210Z,5.03
2023-01-09T16:36:52.999Z,8.80
2023-01-09T16:41:31.723Z,7.62
2023-01-09T16:45:33.945Z,9.13
2023-01-09T16:49:35.694Z,7.62
2023-01-09T16:53:37.424Z,6.82
2023-01-09T16:57:41.326Z,7.05
2023-01-09T17:01:43.602Z,4.47
2023-01-09T17:05:45.968Z,6.20
2023-01-09T17:09:48.443Z,7.82
2023-01-09T17:13:50.773Z,7.43
2023-01-09T17:17:52.403Z,6.30
2023-01-09T17:21:54.036Z,7.45
2023-01-09T17:26:17.569Z,12.57
2023-01-09T17:30:20.209Z,9.88
2023-01-09T17:34:22.019Z,14.90
2023-01-09T17:38:23.762Z,14.20
2023-01-09T17:42:25.453Z,12.10
2023-01-09T17:46:36.091Z,9.73
2023-01-09T17:50:37.729Z,6.78
2023-01-09T17:54:39.801Z,9.35
2023-01-09T17:58:41.460Z,6.87
2023-01-09T18:02:43.158Z,12.07
2023-01-09T18:06:44.926Z,13.98
2023-01-09T18:10:48.367Z,11.63
2023-01-09T18:14:50.251Z,9.65
2023-01-09T18:18:53.719Z,12.68
2023-01-09T18:22:55.397Z,9.73
2023-01-09T18:26:57.060Z,12.13
2023-01-09T18:30:58.719Z,9.15
2023-01-09T18:35:00.650Z,8.98
2023-01-09T18:39:04.118Z,16.48
2023-01-09T18:43:07.677Z,10.65
2023-01-09T18:47:09.398Z,9.27
2023-01-09T18:51:11.051Z,8.68
2023-01-09T18:55:12.804Z,12.07
2023-01-09T18:59:14.451Z,12.50
2023-01-09T19:03:16.082Z,14.18
2023-01-09T19:07:17.948Z,15.60
2023-01-09T19:11:19.625Z,14.02
2023-01-09T19:15:21.266Z,9.23
2023-01-09T19:19:22.921Z,9.75
2023-01-09T19:23:24.743Z,17.35
2023-01-09T19:27:30.114Z,12.60
2023-01-09T19:31:32.217Z,11.27
2023-01-09T19:35:34.330Z,10.68
2023-01-09T19:39:37.286Z,13.20
2023-01-09T19:43:40.581Z,10.32
2023-01-09T19:47:42.539Z,9.55
2023-01-09T19:51:45.767Z,9.77
2023-01-09T19:55:47.552Z,8.75
2023-01-09T19:59:49.205Z,14.13
2023-01-09T20:03:51.907Z,11.98
2023-01-09T20:07:55.062Z,7.55
2023-01-09T20:11:56.866Z,13.75
2023-01-09T20:16:00.277Z,11.23
2023-01-09T20:20:02.044Z,11.73
2023-01-09T20:24:07.791Z,15.35
2023-01-09T20:28:09.401Z,12.13
2023-01-09T20:32:11.063Z,11.85
2023-01-09T20:36:13.225Z,16.60
2023-01-09T20:40:15.021Z,15.27
2023-01-09T20:44:16.775Z,13.45
2023-01-09T20:48:18.408Z,14.35
2023-01-09T20:52:22.431Z,15.02
2023-01-09T20:56:28.450Z,12.25
2023-01-09T21:00:32.083Z,10.48
2023-01-09T21:04:33.945Z,11.60
2023-01-09T21:08:35.980Z,15.98
2023-01-09T21:12:38.307Z,13.43
2023-01-09T21:16:40.111Z,11.02
2023-01-09T21:20:41.908Z,9.07
2023-01-09T21:24:43.580Z,15.00
2023-01-09T21:28:46.567Z,9.63
2023-01-09T21:32:48.216Z,9.48
2023-01-09T21:36:50.239Z,8.90
2023-01-09T21:40:53.348Z,8.48
2023-01-09T21:45:13.664Z,9.43
2023-01-09T21:49:15.322Z,8.80
2023-01-09T21:53:16.895Z,7.05
2023-01-09T21:57:18.704Z,8.70
2023-01-09T22:01:20.427Z,10.75
2023-01-09T22:05:24.506Z,10.18
2023-01-09T22:09:26.171Z,10.40
2023-01-09T22:13:28.403Z,7.45
2023-01-09T22:17:30.363Z,9.35
2023-01-09T22:21:32.132Z,9.10
2023-01-09T22:25:36.831Z,7.53
2023-01-09T22:29:38.484Z,12.63
2023-01-09T22:33:40.130Z,9.77
2023-01-09T22:37:41.855Z,8.30
2023-01-09T22:41:44.634Z,9.48
2023-01-09T22:45:46.300Z,9.50
2023-01-09T22:49:53.814Z,12.30
2023-01-09T22:53:56.173Z,12.95
2023-01-09T22:57:58.424Z,13.68
2023-01-09T23:02:00.199Z,14.98
2023-01-09T23:06:06.767Z,13.27
2023-01-09T23:10:09.064Z,12.88
2023-01-09T23:14:11.345Z,16.30
2023-01-09T23:18:13.039Z,12.70
2023-01-09T23:22:14.721Z,12.00
2023-01-09T23:26:16.361Z,13.00
2023-01-09T23:30:18.061Z,12.88
2023-01-09T23:34:26.341Z,12.93
2023-01-09T23:38:27.990Z,14.13
2023-01-09T23:42:48.261Z,18.55
2023-01-09T23:46:50.133Z,10.65
2023-01-09T23:50:53.875Z,17.15
2023-01-09T23:54:56.576Z,16.12
2023-01-09T23:58:58.329Z,13.43
